Time;durP1;ratioP1;P1;durP2;ratioP2;P2;SDS_P1;SDS_P2;PMS_P1;PMS_P2;Temp;Humidity;BMP_temperature;BMP_pressure;BME280_temperature;BME280_humidity;BME280_pressure;Samples;Min_cycle;Max_cycle;Signal;HPM_P1;HPM_P2
2022/06/01 00:01:52;;;;;;;1.43;0.47;;;13.60;99.90;;;;;;5096876;28;20443;-86
2022/06/01 00:04:20;;;;;;;0.60;0.40;;;13.70;99.90;;;;;;5097052;28;20810;-86
2022/06/01 00:06:46;;;;;;;1.00;0.90;;;13.70;99.90;;;;;;5097482;28;20444;-90
2022/06/01 00:09:13;;;;;;;1.23;0.60;;;13.70;99.90;;;;;;5097802;28;20523;-90
2022/06/01 00:11:40;;;;;;;1.90;0.50;;;13.70;99.90;;;;;;5097768;28;20443;-90
2022/06/01 00:14:08;;;;;;;105.27;43.23;;;13.70;99.90;;;;;;5097090;28;20464;-86
2022/06/01 00:16:36;;;;;;;0.60;0.40;;;13.60;99.90;;;;;;5096993;28;20455;-86
2022/06/01 00:19:03;;;;;;;1.13;0.70;;;13.60;99.90;;;;;;5096998;28;20446;-85
2022/06/01 00:21:29;;;;;;;0.83;0.40;;;13.60;99.90;;;;;;5096933;28;20477;-90
2022/06/01 00:23:56;;;;;;;0.50;0.50;;;13.50;99.90;;;;;;5096979;28;21010;-83
2022/06/01 00:26:23;;;;;;;0.70;0.50;;;13.60;99.90;;;;;;5097333;28;20443;-90
2022/06/01 00:28:50;;;;;;;0.40;0.40;;;13.60;99.90;;;;;;5098061;28;20451;-90
2022/06/01 00:31:16;;;;;;;0.60;0.40;;;13.60;99.90;;;;;;5097238;28;20939;-84
2022/06/01 00:33:44;;;;;;;1.07;0.50;;;13.60;99.90;;;;;;5096333;28;20460;-83
2022/06/01 00:36:11;;;;;;;0.60;0.60;;;13.60;99.90;;;;;;5097388;28;20420;-90
2022/06/01 00:38:38;;;;;;;0.63;0.50;;;13.60;99.90;;;;;;5096635;28;21002;-87
2022/06/01 00:41:05;;;;;;;0.30;0.30;;;13.60;99.90;;;;;;5096469;28;20487;-89
2022/06/01 00:43:42;;;;;;;0.60;0.60;;;13.50;99.90;;;;;;5096654;28;20993;-83
2022/06/01 00:46:09;;;;;;;0.40;0.40;;;13.50;99.90;;;;;;5095920;28;20440;-86
2022/06/01 00:48:35;;;;;;;0.40;0.40;;;13.40;99.90;;;;;;5101760;28;20464;-90
2022/06/01 00:51:04;;;;;;;3.80;0.60;;;13.30;99.90;;;;;;5097216;28;20453;-90
2022/06/01 00:53:34;;;;;;;0.60;0.50;;;13.30;99.90;;;;;;5096330;28;20471;-83
2022/06/01 00:56:05;;;;;;;0.70;0.40;;;13.30;99.90;;;;;;5096072;28;20436;-86
2022/06/01 00:58:35;;;;;;;0.70;0.70;;;13.10;99.90;;;;;;5096014;28;20483;-86
2022/06/01 01:01:04;;;;;;;0.80;0.50;;;13.00;99.90;;;;;;5095935;28;20458;-86
2022/06/01 01:03:34;;;;;;;0.60;0.43;;;13.00;99.90;;;;;;5095565;28;20974;-86
2022/06/01 01:06:10;;;;;;;1.60;0.70;;;13.00;99.90;;;;;;5096086;28;20484;-86
2022/06/01 01:08:38;;;;;;;95.23;86.03;;;12.90;99.90;;;;;;5095928;28;20423;-86
2022/06/01 01:11:07;;;;;;;0.87;0.80;;;12.90;99.90;;;;;;5095499;28;20943;-86
2022/06/01 01:13:33;;;;;;;1.27;0.67;;;12.90;99.90;;;;;;5095953;28;20827;-87
2022/06/01 01:16:00;;;;;;;2266.67;999.90;;;12.90;99.90;;;;;;5095758;28;20887;-89
2022/06/01 01:18:31;;;;;;;343.57;120.27;;;12.90;99.90;;;;;;5095566;28;20464;-83
2022/06/01 01:21:08;;;;;;;0.60;0.60;;;12.90;99.90;;;;;;5095597;28;20802;-83
2022/06/01 01:23:44;;;;;;;0.63;0.50;;;12.90;99.90;;;;;;5095515;28;20467;-83
2022/06/01 01:26:14;;;;;;;1.27;0.40;;;12.90;99.90;;;;;;5095763;28;20424;-89
2022/06/01 01:28:41;;;;;;;71.30;13.37;;;13.00;99.90;;;;;;5096511;28;20436;-89
2022/06/01 01:31:11;;;;;;;0.43;0.43;;;12.90;99.90;;;;;;5095284;28;20455;-83
2022/06/01 01:33:38;;;;;;;0.43;0.33;;;12.90;99.90;;;;;;5095452;28;20468;-86
2022/06/01 01:36:08;;;;;;;1.50;0.53;;;12.90;99.90;;;;;;5095132;28;20452;-86
2022/06/01 01:38:43;;;;;;;0.70;0.70;;;12.90;99.90;;;;;;5095193;28;20476;-83
2022/06/01 01:41:15;;;;;;;34.70;16.43;;;12.90;99.90;;;;;;5095061;28;20485;-90
2022/06/01 01:43:50;;;;;;;0.70;0.50;;;12.90;99.90;;;;;;5094594;28;21002;-83
2022/06/01 01:46:17;;;;;;;0.80;0.70;;;12.80;99.90;;;;;;5095036;28;20423;-89
2022/06/01 01:48:43;;;;;;;1.90;1.00;;;12.80;99.90;;;;;;5095180;28;20443;-83
2022/06/01 01:51:12;;;;;;;104.60;19.10;;;12.80;99.90;;;;;;5094803;28;20440;-86
2022/06/01 01:53:39;;;;;;;0.97;0.97;;;12.80;99.90;;;;;;5094954;28;20834;-83
2022/06/01 01:56:26;;;;;;;0.43;0.43;;;12.70;99.90;;;;;;5094819;28;20444;-85
2022/06/01 01:59:09;;;;;;;0.80;0.80;;;12.60;99.90;;;;;;5094951;28;20464;-86
2022/06/01 02:01:45;;;;;;;1485.50;668.93;;;12.60;99.90;;;;;;5094192;28;20807;-86
2022/06/01 02:07:09;;;;;;;0.70;0.47;;;12.50;99.90;;;;;;5094803;28;20400;-86
2022/06/01 02:15:05;;;;;;;2.60;0.50;;;12.40;99.90;;;;;;5094357;28;20447;-83
2022/06/01 02:17:37;;;;;;;0.90;0.40;;;12.40;99.90;;;;;;5094438;28;20487;-86
2022/06/01 02:20:10;;;;;;;0.53;0.53;;;12.40;99.90;;;;;;5094812;28;20527;-89
2022/06/01 02:22:38;;;;;;;3.40;0.70;;;12.30;99.90;;;;;;5095225;28;20467;-83
2022/06/01 02:25:05;;;;;;;0.50;0.50;;;12.30;99.90;;;;;;5094318;28;20547;-85
2022/06/01 02:27:34;;;;;;;0.40;0.40;;;12.20;99.90;;;;;;5094519;28;20436;-85
2022/06/01 02:30:09;;;;;;;0.63;0.50;;;12.30;99.90;;;;;;5094019;28;20946;-85
2022/06/01 02:32:37;;;;;;;0.50;0.50;;;12.40;99.90;;;;;;5094277;28;20836;-84
2022/06/01 02:35:07;;;;;;;1.03;0.63;;;12.40;99.90;;;;;;5094203;28;20455;-90
2022/06/01 02:37:35;;;;;;;0.73;0.50;;;12.40;99.90;;;;;;5094642;28;20819;-86
2022/06/01 02:40:07;;;;;;;0.57;0.57;;;12.40;99.90;;;;;;5094622;28;20436;-89
2022/06/01 02:42:43;;;;;;;98.37;69.13;;;12.50;99.90;;;;;;5094704;28;20471;-89
2022/06/01 02:45:12;;;;;;;0.63;0.50;;;12.50;99.90;;;;;;5094619;28;20428;-85
2022/06/01 02:47:42;;;;;;;8.13;6.93;;;12.40;99.90;;;;;;5093441;28;20440;-86
2022/06/01 02:50:12;;;;;;;0.57;0.50;;;12.40;99.90;;;;;;5093924;28;20428;-83
2022/06/01 02:52:40;;;;;;;0.40;0.30;;;12.30;99.90;;;;;;5094671;28;20460;-83
2022/06/01 02:55:08;;;;;;;33.27;3.60;;;12.30;99.90;;;;;;5093777;28;20451;-83
2022/06/01 02:57:37;;;;;;;3.70;0.67;;;12.30;99.90;;;;;;5093592;28;20483;-86
2022/06/01 03:00:07;;;;;;;0.47;0.47;;;12.20;99.90;;;;;;5094092;28;20448;-89
2022/06/01 03:02:34;;;;;;;0.60;0.50;;;12.20;99.90;;;;;;5094428;28;20875;-86
2022/06/01 03:05:02;;;;;;;1.77;0.60;;;12.20;99.90;;;;;;5093843;28;20458;-88
2022/06/01 03:07:29;;;;;;;68.90;48.33;;;12.20;99.90;;;;;;5093499;28;20460;-84
2022/06/01 03:09:55;;;;;;;0.50;0.50;;;12.20;99.90;;;;;;5093682;28;20451;-86
2022/06/01 03:12:23;;;;;;;0.40;0.40;;;12.20;99.90;;;;;;5093664;28;20467;-85
2022/06/01 03:14:51;;;;;;;0.40;0.40;;;12.20;99.90;;;;;;5094361;28;20440;-86
2022/06/01 03:17:17;;;;;;;1.03;0.47;;;12.20;99.90;;;;;;5093479;28;20444;-85
2022/06/01 03:19:44;;;;;;;0.70;0.70;;;12.00;99.90;;;;;;5093645;28;20452;-86
2022/06/01 03:22:11;;;;;;;0.67;0.67;;;12.10;99.90;;;;;;5093597;28;20464;-83
2022/06/01 03:24:38;;;;;;;118.83;109.30;;;12.10;99.90;;;;;;5093451;28;20451;-83
2022/06/01 03:27:05;;;;;;;43.43;38.83;;;12.10;99.90;;;;;;5093490;28;20466;-84
2022/06/01 03:29:32;;;;;;;0.50;0.50;;;12.00;99.90;;;;;;5093402;28;20440;-85
2022/06/01 03:32:00;;;;;;;132.17;103.13;;;12.10;99.90;;;;;;5093400;28;20449;-85
2022/06/01 03:34:30;;;;;;;107.73;27.83;;;12.00;99.90;;;;;;5093582;28;20429;-86
2022/06/01 03:36:57;;;;;;;0.40;0.37;;;12.10;99.90;;;;;;5093261;28;20983;-83
2022/06/01 03:39:24;;;;;;;1.37;0.60;;;12.00;99.90;;;;;;5093221;28;20487;-83
2022/06/01 03:41:50;;;;;;;0.30;0.30;;;12.00;99.90;;;;;;5092810;28;20482;-83
2022/06/01 03:47:05;;;;;;;0.70;0.50;;;12.00;99.90;;;;;;5093201;28;20461;-85
2022/06/01 03:49:32;;;;;;;0.60;0.40;;;12.00;99.90;;;;;;5093387;28;20449;-83
2022/06/01 03:51:59;;;;;;;1.53;0.60;;;11.90;99.90;;;;;;5093838;28;20440;-85
2022/06/01 03:54:26;;;;;;;2.50;0.50;;;11.90;99.90;;;;;;5093272;28;20459;-86
2022/06/01 03:56:52;;;;;;;0.50;0.50;;;11.90;99.90;;;;;;5092912;28;20444;-85
2022/06/01 03:59:19;;;;;;;0.93;0.50;;;11.90;99.90;;;;;;5093432;28;20498;-88
2022/06/01 04:01:46;;;;;;;0.50;0.50;;;11.90;99.90;;;;;;5092865;28;20447;-84
2022/06/01 04:04:14;;;;;;;0.40;0.40;;;12.00;99.90;;;;;;5092657;28;20448;-83
2022/06/01 04:06:41;;;;;;;0.70;0.40;;;12.00;99.90;;;;;;5092963;28;20440;-83
2022/06/01 04:09:08;;;;;;;0.57;0.30;;;12.10;99.90;;;;;;5092706;28;20958;-83
2022/06/01 04:11:35;;;;;;;0.30;0.30;;;12.10;99.90;;;;;;5092930;28;20958;-87
2022/06/01 04:14:01;;;;;;;0.93;0.70;;;12.10;99.90;;;;;;5093363;28;20483;-88
2022/06/01 04:16:28;;;;;;;0.40;0.40;;;12.20;99.90;;;;;;5093455;28;20474;-88
2022/06/01 04:18:55;;;;;;;0.57;0.37;;;12.20;99.90;;;;;;5092912;28;20479;-88
2022/06/01 04:21:26;;;;;;;0.40;0.40;;;12.20;99.90;;;;;;5093096;28;20439;-83
2022/06/01 04:23:54;;;;;;;0.50;0.50;;;12.20;99.90;;;;;;5093215;28;20482;-83
2022/06/01 04:26:21;;;;;;;0.57;0.57;;;12.20;99.90;;;;;;5096400;28;20954;-84
2022/06/01 04:28:48;;;;;;;9.60;0.80;;;12.10;99.90;;;;;;5096663;28;20950;-88
2022/06/01 04:31:15;;;;;;;0.40;0.40;;;12.20;99.90;;;;;;5096755;28;20456;-83
2022/06/01 04:33:43;;;;;;;0.53;0.53;;;12.20;99.90;;;;;;5096235;28;20471;-83
2022/06/01 04:36:10;;;;;;;0.67;0.67;;;12.20;99.90;;;;;;5096147;28;20429;-83
2022/06/01 04:38:38;;;;;;;0.50;0.40;;;12.30;99.90;;;;;;5096279;28;20486;-83
2022/06/01 04:41:05;;;;;;;0.40;0.40;;;12.40;99.90;;;;;;5096225;28;20476;-88
2022/06/01 04:43:32;;;;;;;0.50;0.50;;;12.50;99.90;;;;;;5096395;28;20472;-88
2022/06/01 04:45:59;;;;;;;0.50;0.50;;;12.50;99.90;;;;;;5096699;28;20451;-88
2022/06/01 04:48:26;;;;;;;0.70;0.70;;;12.50;99.90;;;;;;5096788;28;20440;-88
2022/06/01 04:50:54;;;;;;;0.40;0.40;;;12.60;99.90;;;;;;5096437;28;20436;-88
2022/06/01 04:53:21;;;;;;;0.50;0.50;;;12.60;99.90;;;;;;5096572;28;20467;-88
2022/06/01 04:55:49;;;;;;;1.10;0.60;;;12.70;99.90;;;;;;5096632;28;20448;-85
2022/06/01 04:58:16;;;;;;;0.40;0.40;;;12.70;99.90;;;;;;5096309;28;20480;-86
2022/06/01 05:00:44;;;;;;;0.47;0.37;;;12.70;99.90;;;;;;5095599;28;20455;-86
2022/06/01 05:03:12;;;;;;;0.50;0.40;;;12.80;99.90;;;;;;5095887;28;20464;-86
2022/06/01 05:05:40;;;;;;;0.70;0.40;;;12.80;99.90;;;;;;5095966;28;20621;-86
2022/06/01 05:08:07;;;;;;;0.63;0.40;;;12.80;99.90;;;;;;5096046;28;20499;-88
2022/06/01 05:10:34;;;;;;;0.40;0.30;;;12.90;99.90;;;;;;5096248;28;20455;-85
2022/06/01 05:13:03;;;;;;;0.77;0.60;;;12.90;99.90;;;;;;5095700;28;20471;-86
2022/06/01 05:15:30;;;;;;;0.93;0.93;;;13.00;99.90;;;;;;5096409;28;20447;-83
2022/06/01 05:17:57;;;;;;;1.07;0.80;;;13.10;99.90;;;;;;5095411;28;20455;-85
2022/06/01 05:20:23;;;;;;;0.73;0.60;;;13.10;99.90;;;;;;5095773;28;20452;-88
2022/06/01 05:22:50;;;;;;;1.13;0.73;;;13.20;99.90;;;;;;5095656;28;20470;-88
2022/06/01 05:25:17;;;;;;;0.67;0.47;;;13.30;99.90;;;;;;5095902;28;20448;-88
2022/06/01 05:27:44;;;;;;;0.50;0.50;;;13.30;99.90;;;;;;5095671;28;20443;-85
2022/06/01 05:30:13;;;;;;;0.97;0.60;;;13.40;99.90;;;;;;5095569;28;20432;-88
2022/06/01 05:32:39;;;;;;;0.50;0.50;;;13.50;99.90;;;;;;5095870;28;20472;-86
2022/06/01 05:35:07;;;;;;;0.53;0.43;;;13.60;99.90;;;;;;5094710;28;20454;-88
2022/06/01 05:37:34;;;;;;;0.60;0.40;;;13.70;99.90;;;;;;5095041;28;20459;-88
2022/06/01 05:40:00;;;;;;;0.40;0.40;;;13.80;99.90;;;;;;5095775;28;20530;-89
2022/06/01 05:42:27;;;;;;;1.07;0.43;;;13.90;99.90;;;;;;5095494;28;20483;-88
2022/06/01 05:44:54;;;;;;;2.10;0.60;;;14.00;99.90;;;;;;5095346;28;20962;-88
2022/06/01 05:47:23;;;;;;;0.70;0.50;;;14.10;99.90;;;;;;5095488;28;20444;-86
2022/06/01 05:49:49;;;;;;;0.90;0.60;;;14.20;99.90;;;;;;5095146;28;20447;-83
2022/06/01 05:52:18;;;;;;;0.57;0.57;;;14.40;99.90;;;;;;5094644;28;20449;-85
2022/06/01 05:54:45;;;;;;;1.50;0.70;;;14.50;99.90;;;;;;5094579;28;21011;-86
2022/06/01 05:57:12;;;;;;;0.80;0.67;;;14.60;99.90;;;;;;5095181;28;20448;-88
2022/06/01 05:59:39;;;;;;;0.73;0.60;;;14.70;99.90;;;;;;5095181;28;20480;-88
2022/06/01 06:02:06;;;;;;;0.70;0.43;;;14.90;99.90;;;;;;5095292;28;20439;-88
2022/06/01 06:04:34;;;;;;;0.70;0.50;;;15.10;99.90;;;;;;5094797;28;20448;-85
2022/06/01 06:07:01;;;;;;;0.40;0.40;;;15.20;99.90;;;;;;5094861;28;20459;-88
2022/06/01 06:09:28;;;;;;;0.70;0.60;;;15.40;99.90;;;;;;5094838;28;20788;-83
2022/06/01 06:11:55;;;;;;;0.50;0.40;;;15.60;99.90;;;;;;5094191;28;20804;-85
2022/06/01 06:14:22;;;;;;;0.50;0.50;;;15.90;99.90;;;;;;5094553;28;20452;-86
2022/06/01 06:16:49;;;;;;;0.60;0.60;;;16.10;99.90;;;;;;5094509;28;20462;-86
2022/06/01 06:19:18;;;;;;;0.60;0.50;;;16.40;99.90;;;;;;5094518;28;20467;-88
2022/06/01 06:21:46;;;;;;;0.60;0.60;;;16.60;99.90;;;;;;5095071;28;20907;-89
2022/06/01 06:24:16;;;;;;;0.50;0.50;;;16.80;99.90;;;;;;5094385;28;20986;-83
2022/06/01 06:26:43;;;;;;;0.80;0.70;;;17.30;99.90;;;;;;5094239;28;20451;-83
2022/06/01 06:29:12;;;;;;;0.50;0.50;;;17.60;99.90;;;;;;5094264;28;20444;-83
2022/06/01 06:31:40;;;;;;;1.00;0.50;;;17.90;99.90;;;;;;5094253;28;20428;-83
2022/06/01 06:34:07;;;;;;;0.80;0.80;;;18.20;99.90;;;;;;5094680;28;20463;-89
2022/06/01 06:36:34;;;;;;;0.80;0.80;;;18.50;99.90;;;;;;5094412;28;20451;-85
2022/06/01 06:39:02;;;;;;;0.60;0.60;;;18.80;99.90;;;;;;5094071;28;20527;-87
2022/06/01 06:41:29;;;;;;;1.07;0.97;;;19.10;99.90;;;;;;5094062;28;20483;-89
2022/06/01 06:43:56;;;;;;;0.57;0.57;;;19.20;99.90;;;;;;5098131;28;20222;-91
2022/06/01 06:46:24;;;;;;;4.30;0.90;;;19.30;99.90;;;;;;5094579;28;20603;-90
2022/06/01 06:48:51;;;;;;;0.80;0.80;;;19.30;99.90;;;;;;5094254;28;20281;-86
2022/06/01 06:51:20;;;;;;;0.80;0.80;;;19.50;99.90;;;;;;5093628;28;20703;-84
2022/06/01 06:53:47;;;;;;;0.90;0.90;;;19.70;99.90;;;;;;5093729;28;20236;-83
2022/06/01 06:56:18;;;;;;;1.00;0.90;;;19.80;99.90;;;;;;5093788;28;20201;-83
2022/06/01 06:58:44;;;;;;;0.67;0.67;;;20.10;99.90;;;;;;5093421;28;20650;-83
2022/06/01 07:01:11;;;;;;;0.70;0.70;;;20.30;99.90;;;;;;5093501;28;20657;-83
2022/06/01 07:03:38;;;;;;;3.70;0.90;;;20.40;99.90;;;;;;5093872;28;20221;-88
2022/06/01 07:06:12;;;;;;;0.70;0.70;;;20.60;99.90;;;;;;5094067;28;20575;-88
2022/06/01 07:08:41;;;;;;;1.67;0.67;;;20.40;99.90;;;;;;5093955;28;20641;-85
2022/06/01 07:11:07;;;;;;;0.80;0.80;;;20.40;99.90;;;;;;5093358;28;20220;-88
2022/06/01 07:13:36;;;;;;;0.90;0.90;;;20.70;99.90;;;;;;5093506;28;20221;-85
2022/06/01 07:16:06;;;;;;;1.13;1.03;;;20.70;99.90;;;;;;5093548;28;20201;-85
2022/06/01 07:18:33;;;;;;;0.90;0.60;;;20.70;99.90;;;;;;5093441;28;20217;-85
2022/06/01 07:21:00;;;;;;;0.90;0.80;;;20.90;99.90;;;;;;5093516;28;20205;-84
2022/06/01 07:23:27;;;;;;;0.70;0.70;;;20.90;99.90;;;;;;5093431;28;20218;-85
2022/06/01 07:25:54;;;;;;;0.67;0.67;;;21.00;99.90;;;;;;5093185;28;20205;-85
2022/06/01 07:28:22;;;;;;;0.80;0.80;;;21.00;99.90;;;;;;5093483;28;20220;-85
2022/06/01 07:30:56;;;;;;;0.60;0.60;;;21.40;99.90;;;;;;5093406;28;20279;-85
2022/06/01 07:33:23;;;;;;;0.80;0.80;;;21.60;99.90;;;;;;5093323;28;20225;-85
2022/06/01 07:35:50;;;;;;;0.82;0.80;;;21.90;99.90;;;;;;5093073;28;20201;-85
2022/06/01 07:43:46;;;;;;;1.15;1.15;;;24.00;99.90;;;;;;5093310;28;20216;-85
2022/06/01 07:46:14;;;;;;;0.90;0.80;;;24.70;97.50;;;;;;5093057;28;20273;-86
2022/06/01 07:48:41;;;;;;;0.50;0.50;;;25.10;95.80;;;;;;5093234;28;20288;-85
2022/06/01 07:51:08;;;;;;;0.70;0.63;;;25.40;93.50;;;;;;5094002;28;20216;-85
2022/06/01 07:53:34;;;;;;;1.00;0.60;;;26.20;91.70;;;;;;5093058;28;20239;-85
2022/06/01 07:56:01;;;;;;;1.15;0.70;;;26.90;90.00;;;;;;5093071;28;20213;-85
2022/06/01 07:58:28;;;;;;;0.80;0.80;;;27.20;86.30;;;;;;5093173;28;20202;-85
2022/06/01 08:00:55;;;;;;;0.70;0.70;;;26.90;80.00;;;;;;5096428;28;20221;-85
2022/06/01 08:03:23;;;;;;;0.82;0.70;;;27.20;79.80;;;;;;5096986;28;20225;-85
2022/06/01 08:05:49;;;;;;;0.73;0.73;;;27.10;80.70;;;;;;5097042;28;20213;-85
2022/06/01 08:08:16;;;;;;;0.95;0.65;;;27.00;77.90;;;;;;5096907;28;20206;-85
2022/06/01 08:10:43;;;;;;;0.73;0.73;;;26.60;77.10;;;;;;5096606;28;20200;-85
2022/06/01 08:13:11;;;;;;;1.42;0.70;;;26.70;76.60;;;;;;5096613;28;20607;-84
2022/06/01 08:15:43;;;;;;;0.88;0.88;;;26.60;76.30;;;;;;5098121;28;20274;-85
2022/06/01 08:18:11;;;;;;;0.90;0.63;;;26.60;70.70;;;;;;5096571;28;20644;-85
2022/06/01 08:20:39;;;;;;;0.60;0.60;;;26.70;73.20;;;;;;5096549;28;20225;-84
2022/06/01 08:23:07;;;;;;;0.85;0.60;;;26.50;69.10;;;;;;5103753;28;20221;-92
2022/06/01 08:25:35;;;;;;;0.65;0.60;;;26.60;68.00;;;;;;5108405;28;20223;-90
2022/06/01 08:28:02;;;;;;;0.55;0.55;;;26.40;67.20;;;;;;5102463;28;20204;-91
2022/06/01 08:30:30;;;;;;;0.60;0.60;;;26.10;69.40;;;;;;5105985;28;20200;-90
2022/06/01 08:32:57;;;;;;;0.88;0.50;;;26.30;67.00;;;;;;5104421;28;20583;-91
2022/06/01 08:35:27;;;;;;;0.60;0.60;;;26.00;66.70;;;;;;5096857;28;20209;-89
2022/06/01 08:37:56;;;;;;;0.50;0.50;;;25.40;63.60;;;;;;5097765;28;20273;-90
2022/06/01 08:40:27;;;;;;;0.70;0.70;;;24.90;63.70;;;;;;5097610;28;20589;-91
2022/06/01 08:42:59;;;;;;;0.60;0.60;;;24.80;65.70;;;;;;5101511;28;20223;-91
2022/06/01 08:45:27;;;;;;;0.50;0.50;;;24.60;64.80;;;;;;5098147;28;20192;-90
2022/06/01 08:47:54;;;;;;;0.50;0.50;;;24.60;65.70;;;;;;5097735;28;20205;-89
2022/06/01 08:50:26;;;;;;;0.52;0.50;;;24.50;66.50;;;;;;5097128;28;20215;-91
2022/06/01 08:52:58;;;;;;;0.65;0.65;;;24.70;66.90;;;;;;5097060;28;20222;-90
2022/06/01 08:55:28;;;;;;;0.60;0.50;;;24.80;64.10;;;;;;5096670;28;20660;-89
2022/06/01 08:57:58;;;;;;;0.40;0.40;;;24.60;62.20;;;;;;5096410;28;20200;-89
2022/06/01 09:00:29;;;;;;;1.30;0.50;;;24.90;61.80;;;;;;5097091;28;20540;-90
2022/06/01 09:03:05;;;;;;;1.25;0.50;;;25.40;59.70;;;;;;5096671;28;20229;-91
2022/06/01 09:05:41;;;;;;;0.65;0.65;;;25.90;59.90;;;;;;5096644;28;20185;-90
2022/06/01 09:08:25;;;;;;;0.95;0.70;;;25.90;59.00;;;;;;5096611;28;20185;-90
2022/06/01 09:11:02;;;;;;;0.77;0.52;;;26.00;58.50;;;;;;5096645;28;20523;-89
2022/06/01 09:13:35;;;;;;;0.90;0.70;;;25.80;58.40;;;;;;5097486;28;20278;-92
2022/06/01 09:16:06;;;;;;;0.43;0.43;;;25.70;58.40;;;;;;5096466;28;20277;-89
2022/06/01 09:18:37;;;;;;;0.60;0.60;;;25.50;58.50;;;;;;5097018;28;20189;-93
2022/06/01 09:23:51;;;;;;;0.50;0.50;;;25.20;60.10;;;;;;5096429;28;20725;-92
2022/06/01 09:26:27;;;;;;;0.52;0.50;;;25.10;58.30;;;;;;5096797;28;20571;-94
2022/06/01 09:28:56;;;;;;;0.50;0.50;;;25.10;58.50;;;;;;5096533;28;20201;-93
2022/06/01 09:31:29;;;;;;;0.40;0.40;;;25.10;58.30;;;;;;5096898;28;20197;-91
2022/06/01 09:34:14;;;;;;;0.50;0.50;;;25.10;58.20;;;;;;5096379;28;20228;-92
2022/06/01 09:37:04;;;;;;;0.65;0.60;;;24.80;56.20;;;;;;5096387;28;20741;-93
2022/06/01 09:39:34;;;;;;;0.40;0.40;;;24.40;54.20;;;;;;5092971;28;20209;-91
2022/06/01 09:42:16;;;;;;;0.70;0.60;;;24.20;56.90;;;;;;5096347;28;20576;-91
2022/06/01 09:44:46;;;;;;;0.50;0.50;;;24.20;54.10;;;;;;5096097;28;20636;-93
2022/06/01 09:47:28;;;;;;;0.52;0.45;;;24.30;56.60;;;;;;5096217;28;20201;-93
2022/06/01 09:49:57;;;;;;;0.40;0.40;;;24.30;56.70;;;;;;5096057;28;20185;-91
2022/06/01 09:52:30;;;;;;;0.50;0.50;;;24.10;56.80;;;;;;5096156;28;20225;-92
2022/06/01 09:55:09;;;;;;;0.40;0.40;;;24.30;57.10;;;;;;5095914;28;20189;-92
2022/06/01 09:57:38;;;;;;;0.52;0.52;;;24.50;57.20;;;;;;5096039;28;20189;-92
2022/06/01 10:06:06;;;;;;;0.43;0.43;;;24.30;57.50;;;;;;5093709;28;20190;-85
2022/06/01 10:08:35;;;;;;;0.50;0.50;;;24.40;56.50;;;;;;5094591;28;20670;-88
2022/06/01 10:11:06;;;;;;;0.47;0.47;;;24.60;57.30;;;;;;5094830;28;20545;-82
2022/06/01 10:13:35;;;;;;;0.50;0.50;;;24.70;54.80;;;;;;5094526;28;20225;-82
2022/06/01 10:16:12;;;;;;;0.60;0.60;;;24.80;55.10;;;;;;5094611;28;20596;-88
2022/06/01 10:18:42;;;;;;;0.55;0.52;;;24.70;53.00;;;;;;5095128;28;20611;-88
2022/06/01 10:21:12;;;;;;;0.70;0.50;;;24.60;55.00;;;;;;5094553;28;20225;-82
2022/06/01 10:23:44;;;;;;;0.40;0.40;;;24.70;53.70;;;;;;5094751;28;20227;-87
2022/06/01 10:26:19;;;;;;;0.50;0.50;;;24.70;55.20;;;;;;5094260;28;20239;-86
2022/06/01 10:28:52;;;;;;;0.40;0.40;;;24.70;53.40;;;;;;5094176;28;20181;-86
2022/06/01 10:31:26;;;;;;;0.40;0.40;;;24.80;54.00;;;;;;5094448;28;20181;-86
2022/06/01 10:33:59;;;;;;;1.25;0.57;;;24.80;53.70;;;;;;5094231;28;20221;-86
2022/06/01 10:36:40;;;;;;;0.40;0.40;;;24.80;53.80;;;;;;5094139;28;20189;-87
2022/06/01 10:39:14;;;;;;;0.70;0.40;;;24.90;55.60;;;;;;5094164;28;20189;-86
2022/06/01 10:41:49;;;;;;;1.10;0.60;;;25.00;56.00;;;;;;5093792;28;20248;-86
2022/06/01 10:44:21;;;;;;;0.50;0.50;;;25.10;55.50;;;;;;5094199;28;20188;-82
2022/06/01 10:46:52;;;;;;;1.60;0.52;;;25.00;53.40;;;;;;5093723;28;20178;-87
2022/06/01 10:49:41;;;;;;;1.85;0.47;;;25.10;55.10;;;;;;5094018;28;20205;-86
2022/06/01 10:52:21;;;;;;;0.57;0.50;;;25.10;54.30;;;;;;5093991;28;20225;-86
2022/06/01 10:54:59;;;;;;;0.77;0.77;;;25.10;54.70;;;;;;5094222;28;20538;-87
2022/06/01 10:57:27;;;;;;;0.45;0.45;;;25.10;53.70;;;;;;5094779;28;20208;-86
2022/06/01 10:59:54;;;;;;;0.68;0.50;;;25.00;54.80;;;;;;5093773;28;20197;-85
2022/06/01 11:02:37;;;;;;;0.50;0.50;;;25.20;55.70;;;;;;5093677;28;20225;-86
2022/06/01 11:05:16;;;;;;;0.50;0.50;;;25.40;53.90;;;;;;5093709;28;20185;-86
2022/06/01 11:07:55;;;;;;;0.57;0.50;;;25.60;52.50;;;;;;5093677;28;20280;-85
2022/06/01 11:10:29;;;;;;;0.40;0.40;;;25.60;53.70;;;;;;5093722;28;20182;-86
2022/06/01 11:13:08;;;;;;;0.50;0.50;;;25.40;53.30;;;;;;5093523;28;20224;-87
2022/06/01 11:15:42;;;;;;;0.60;0.60;;;25.10;53.20;;;;;;5093649;28;20188;-85
2022/06/01 11:18:35;;;;;;;0.50;0.50;;;24.70;52.40;;;;;;5093249;28;20644;-85
2022/06/01 11:21:11;;;;;;;0.40;0.40;;;24.80;55.20;;;;;;5093322;28;20228;-86
2022/06/01 11:23:54;;;;;;;0.60;0.47;;;24.70;53.70;;;;;;5093468;28;20228;-86
2022/06/01 11:26:47;;;;;;;0.88;0.60;;;24.60;52.60;;;;;;5094236;28;20587;-86
2022/06/01 11:29:30;;;;;;;0.50;0.50;;;24.60;54.70;;;;;;5093508;28;20538;-86
2022/06/01 11:32:01;;;;;;;0.40;0.40;;;24.70;54.30;;;;;;5093415;28;20181;-86
2022/06/01 11:34:36;;;;;;;0.80;0.50;;;24.80;53.40;;;;;;5094686;28;20193;-85
2022/06/01 11:37:07;;;;;;;0.50;0.50;;;24.90;54.20;;;;;;5097622;28;20185;-85
2022/06/01 11:39:41;;;;;;;0.50;0.50;;;25.00;51.30;;;;;;5097526;28;20185;-85
2022/06/01 11:42:14;;;;;;;0.40;0.40;;;24.80;51.10;;;;;;5097033;28;20236;-85
2022/06/01 11:44:47;;;;;;;0.50;0.50;;;24.70;52.90;;;;;;5097196;28;20656;-86
2022/06/01 11:47:17;;;;;;;0.50;0.50;;;24.80;53.40;;;;;;5097086;28;20637;-86
2022/06/01 11:50:00;;;;;;;0.70;0.60;;;24.50;51.80;;;;;;5097038;28;20695;-86
2022/06/01 11:52:33;;;;;;;0.50;0.50;;;24.40;53.10;;;;;;5097298;28;20565;-86
2022/06/01 11:55:24;;;;;;;0.93;0.60;;;24.30;52.60;;;;;;5097336;28;20189;-85
2022/06/01 11:57:55;;;;;;;0.70;0.70;;;24.30;52.90;;;;;;5097229;28;20224;-86
2022/06/01 12:00:34;;;;;;;0.52;0.52;;;24.20;52.70;;;;;;5097134;28;20209;-86
2022/06/01 12:03:22;;;;;;;0.40;0.40;;;24.10;52.60;;;;;;5097074;28;20229;-86
2022/06/01 12:06:01;;;;;;;0.85;0.70;;;24.10;54.00;;;;;;5096679;28;20205;-85
2022/06/01 12:08:35;;;;;;;0.70;0.60;;;24.30;54.70;;;;;;5096996;28;20185;-86
2022/06/01 12:11:04;;;;;;;0.40;0.40;;;24.20;53.40;;;;;;5096722;28;20644;-85
2022/06/01 12:13:50;;;;;;;0.60;0.60;;;24.40;53.60;;;;;;5096609;28;20704;-85
2022/06/01 12:16:22;;;;;;;0.50;0.50;;;24.40;52.70;;;;;;5096613;28;20193;-86
2022/06/01 12:19:02;;;;;;;0.50;0.50;;;24.30;52.90;;;;;;5096629;28;20197;-86
2022/06/01 12:21:55;;;;;;;0.50;0.50;;;24.30;54.30;;;;;;5096539;28;20202;-86
2022/06/01 12:30:12;;;;;;;0.90;0.50;;;23.80;54.10;;;;;;5096523;28;20595;-86
2022/06/01 12:33:09;;;;;;;0.70;0.60;;;23.70;53.00;;;;;;5096137;28;20788;-86
2022/06/01 12:35:48;;;;;;;0.43;0.43;;;23.60;54.70;;;;;;5087878;28;20672;-86
2022/06/01 12:38:21;;;;;;;0.45;0.45;;;23.60;54.80;;;;;;5096499;28;20561;-86
2022/06/01 12:41:00;;;;;;;0.50;0.50;;;23.80;55.10;;;;;;5096314;28;20240;-85
2022/06/01 12:43:27;;;;;;;0.70;0.70;;;24.00;55.60;;;;;;5095991;28;20220;-86
2022/06/01 12:45:55;;;;;;;0.40;0.40;;;24.00;56.10;;;;;;5095956;28;20201;-86
2022/06/01 12:48:23;;;;;;;0.77;0.50;;;23.90;55.30;;;;;;5096655;28;20186;-86
2022/06/01 12:50:53;;;;;;;1.65;0.60;;;23.70;54.60;;;;;;5096403;28;20280;-86
2022/06/01 12:53:23;;;;;;;0.52;0.52;;;23.70;55.90;;;;;;5095837;28;20708;-86
2022/06/01 12:56:05;;;;;;;0.68;0.52;;;23.60;56.60;;;;;;5096208;28;20563;-87
2022/06/01 12:58:34;;;;;;;0.60;0.50;;;23.40;56.30;;;;;;5096171;28;20268;-87
2022/06/01 13:01:01;;;;;;;0.77;0.70;;;23.30;57.00;;;;;;5096265;28;20206;-85
2022/06/01 13:03:33;;;;;;;0.70;0.60;;;23.30;57.70;;;;;;5095612;28;20727;-82
2022/06/01 13:06:02;;;;;;;0.63;0.57;;;23.30;56.50;;;;;;5095903;28;20181;-82
2022/06/01 13:08:32;;;;;;;0.68;0.68;;;23.20;57.60;;;;;;5095844;28;20208;-82
2022/06/01 13:11:13;;;;;;;0.68;0.68;;;23.10;58.00;;;;;;5095864;28;20210;-82
2022/06/01 13:13:44;;;;;;;1.13;0.50;;;23.10;58.80;;;;;;5095820;28;20584;-77
2022/06/01 13:16:11;;;;;;;1.50;1.40;;;23.00;59.10;;;;;;5095803;28;20243;-78
2022/06/01 13:18:42;;;;;;;0.60;0.60;;;22.90;58.70;;;;;;5095672;28;20201;-78
2022/06/01 13:21:15;;;;;;;0.60;0.60;;;22.90;58.50;;;;;;5095621;28;20209;-77
2022/06/01 13:23:48;;;;;;;0.90;0.90;;;22.90;59.30;;;;;;5095537;28;20218;-77
2022/06/01 13:26:27;;;;;;;0.60;0.60;;;23.00;58.70;;;;;;5095251;28;20684;-78
2022/06/01 13:28:54;;;;;;;0.73;0.50;;;23.10;60.30;;;;;;5095201;28;20197;-78
2022/06/01 13:31:21;;;;;;;0.73;0.60;;;23.10;59.00;;;;;;5095043;28;20542;-80
2022/06/01 13:33:50;;;;;;;0.87;0.60;;;23.20;58.40;;;;;;5095001;28;20224;-78